Time;durP1;ratioP1;P1;durP2;ratioP2;P2;SDS_P1;SDS_P2;PMS_P1;PMS_P2;Temp;Humidity;BMP_temperature;BMP_pressure;BME280_temperature;BME280_humidity;BME280_pressure;Samples;Min_cycle;Max_cycle;Signal;HPM_P1;HPM_P2
2023/07/05 00:01:54;;;;;;;3.63;1.80;;;14.90;99.90;;;;;;5034430;28;20048;-87
2023/07/05 00:04:20;;;;;;;5.30;1.85;;;14.80;99.90;;;;;;5051447;28;20055;-86
2023/07/05 00:06:46;;;;;;;5.07;1.90;;;14.80;99.90;;;;;;5067207;28;20442;-88
2023/07/05 00:09:11;;;;;;;3.83;1.98;;;14.80;99.90;;;;;;5035382;28;20068;-89
2023/07/05 00:11:37;;;;;;;5.95;1.95;;;14.60;99.90;;;;;;5033943;28;20045;-87
2023/07/05 00:14:03;;;;;;;4.50;1.92;;;14.80;99.90;;;;;;5051893;28;20059;-89
2023/07/05 00:16:28;;;;;;;7.57;2.15;;;14.80;99.90;;;;;;5050713;28;20139;-88
2023/07/05 00:18:56;;;;;;;5.53;2.08;;;14.70;99.90;;;;;;5051261;28;20364;-89
2023/07/05 00:21:22;;;;;;;5.90;2.22;;;14.70;99.90;;;;;;5051154;28;20041;-89
2023/07/05 00:23:48;;;;;;;7.35;2.92;;;14.70;99.90;;;;;;5050710;28;20041;-88
2023/07/05 00:26:14;;;;;;;5.97;2.22;;;14.70;99.90;;;;;;5051815;28;20540;-88
2023/07/05 00:28:39;;;;;;;6.90;2.30;;;14.60;99.90;;;;;;5033682;28;20160;-90
2023/07/05 00:31:05;;;;;;;6.65;2.58;;;14.60;99.90;;;;;;5034927;28;20127;-87
2023/07/05 00:33:31;;;;;;;7.05;2.35;;;14.60;99.90;;;;;;5050928;28;20127;-89
2023/07/05 00:35:58;;;;;;;7.57;2.75;;;14.60;99.90;;;;;;5051353;28;20133;-89
2023/07/05 00:38:24;;;;;;;9.57;2.42;;;14.70;99.90;;;;;;5067365;28;20052;-87
2023/07/05 00:40:51;;;;;;;4.22;2.67;;;14.60;99.90;;;;;;5050928;28;20084;-86
2023/07/05 00:43:18;;;;;;;8.45;2.70;;;14.60;99.90;;;;;;5059907;28;20100;-88
2023/07/05 00:45:51;;;;;;;6.95;2.80;;;14.50;99.90;;;;;;5074027;28;20071;-88
2023/07/05 00:48:25;;;;;;;10.60;3.20;;;14.50;99.90;;;;;;5091474;28;20036;-88
2023/07/05 00:50:55;;;;;;;6.47;2.70;;;14.50;99.90;;;;;;5068192;28;20041;-89
2023/07/05 00:53:23;;;;;;;5.32;2.70;;;14.50;99.90;;;;;;5070453;28;20072;-88
2023/07/05 00:55:55;;;;;;;8.88;3.47;;;14.50;99.90;;;;;;5052498;28;20040;-89
2023/07/05 00:58:22;;;;;;;7.05;3.03;;;14.50;99.90;;;;;;5067234;28;20083;-87
2023/07/05 01:00:48;;;;;;;9.27;3.30;;;14.50;99.90;;;;;;5034500;28;20036;-89
2023/07/05 01:03:21;;;;;;;8.77;3.08;;;14.50;99.90;;;;;;5033612;28;20045;-89
2023/07/05 01:05:51;;;;;;;;;;;14.50;99.90;;;;;;5050754;28;20047;-90
2023/07/05 01:08:17;;;;;;;10.43;3.00;;;14.50;99.90;;;;;;5050897;28;20011;-87
2023/07/05 01:10:52;;;;;;;9.73;3.00;;;14.50;99.90;;;;;;5050262;28;20132;-90
2023/07/05 01:13:28;;;;;;;6.22;3.33;;;14.50;99.90;;;;;;5051295;28;20041;-90
2023/07/05 01:15:59;;;;;;;8.10;3.03;;;12.90;99.90;;;;;;5050146;28;20139;-89
2023/07/05 01:18:29;;;;;;;7.15;3.55;;;14.50;99.90;;;;;;5050077;28;20362;-87
2023/07/05 01:21:10;;;;;;;7.93;3.65;;;14.50;99.90;;;;;;5050575;28;20114;-89
2023/07/05 01:24:11;;;;;;;7.50;3.10;;;14.50;99.90;;;;;;5065653;28;20064;-88
2023/07/05 01:26:58;;;;;;;9.18;3.17;;;14.50;99.90;;;;;;4970135;28;20038;-89
2023/07/05 01:29:55;;;;;;;8.85;3.83;;;14.50;99.90;;;;;;5060029;28;20057;-90
2023/07/05 01:32:48;;;;;;;6.57;3.85;;;14.50;99.90;;;;;;5048950;28;20056;-89
2023/07/05 01:35:20;;;;;;;6.20;3.33;;;14.50;99.90;;;;;;5066655;28;20037;-88
2023/07/05 01:37:46;;;;;;;6.97;4.07;;;14.50;99.90;;;;;;5049970;28;20447;-88
2023/07/05 01:40:21;;;;;;;9.73;4.85;;;14.50;99.90;;;;;;5049947;28;20048;-86
2023/07/05 01:42:50;;;;;;;9.80;4.55;;;14.60;99.90;;;;;;5050056;28;20418;-87
2023/07/05 01:45:21;;;;;;;10.18;4.50;;;14.60;99.90;;;;;;5063975;28;20056;-87
2023/07/05 01:48:05;;;;;;;11.35;5.05;;;14.60;99.90;;;;;;5048847;28;20040;-88
2023/07/05 01:50:39;;;;;;;12.70;4.72;;;14.60;99.90;;;;;;5064461;28;20526;-88
2023/07/05 01:53:23;;;;;;;8.18;4.47;;;14.60;99.90;;;;;;5047996;28;20526;-87
2023/07/05 01:56:06;;;;;;;13.80;4.75;;;14.60;99.90;;;;;;5065621;28;20114;-88
2023/07/05 01:58:40;;;;;;;12.90;5.20;;;14.60;99.90;;;;;;5064073;28;20044;-86
2023/07/05 02:01:08;;;;;;;9.93;4.35;;;14.60;99.90;;;;;;5048415;28;20056;-88
2023/07/05 02:03:36;;;;;;;12.68;4.93;;;14.60;99.90;;;;;;5063946;28;20518;-88
2023/07/05 02:06:03;;;;;;;16.48;5.82;;;14.60;99.90;;;;;;5047635;28;20036;-86
2023/07/05 02:08:29;;;;;;;14.70;5.45;;;14.60;99.90;;;;;;5064772;28;20387;-86
2023/07/05 02:10:55;;;;;;;11.63;5.32;;;14.50;99.90;;;;;;5030124;28;20044;-88
2023/07/05 02:13:21;;;;;;;8.98;5.38;;;14.50;99.90;;;;;;5032305;28;20150;-87
2023/07/05 02:15:50;;;;;;;10.50;4.60;;;14.50;99.90;;;;;;5048245;28;20144;-87
2023/07/05 02:18:16;;;;;;;8.43;5.57;;;14.50;99.90;;;;;;5052553;28;20055;-88
2023/07/05 02:20:42;;;;;;;12.50;6.05;;;14.50;99.90;;;;;;5078204;28;20037;-87
2023/07/05 02:23:08;;;;;;;11.23;5.07;;;14.50;99.90;;;;;;5068584;28;20098;-85
2023/07/05 02:25:35;;;;;;;14.88;5.85;;;14.50;99.90;;;;;;5079819;28;20052;-88
2023/07/05 02:28:04;;;;;;;15.55;5.30;;;14.40;99.90;;;;;;5064381;28;20162;-87
2023/07/05 02:30:30;;;;;;;13.50;5.57;;;14.40;99.90;;;;;;5049172;28;20138;-87
2023/07/05 02:32:56;;;;;;;11.90;5.72;;;14.40;99.90;;;;;;5046730;28;20088;-88
2023/07/05 02:35:24;;;;;;;15.98;5.65;;;14.30;99.90;;;;;;5048082;28;20053;-88
2023/07/05 02:37:50;;;;;;;12.07;6.15;;;14.40;99.90;;;;;;5030540;28;20447;-88
2023/07/05 02:40:16;;;;;;;18.85;6.07;;;14.30;99.90;;;;;;5030656;28;20153;-88
2023/07/05 02:42:41;;;;;;;13.65;6.07;;;14.30;99.90;;;;;;5047650;28;20051;-88
2023/07/05 02:45:07;;;;;;;14.95;6.35;;;14.30;99.90;;;;;;5030307;28;20407;-88
2023/07/05 02:47:33;;;;;;;13.60;6.60;;;14.30;99.90;;;;;;5051250;28;20058;-86
2023/07/05 02:49:59;;;;;;;10.70;6.57;;;14.30;99.90;;;;;;5055945;28;20389;-88
2023/07/05 02:52:24;;;;;;;12.88;6.13;;;14.30;99.90;;;;;;5067169;28;20044;-87
2023/07/05 02:54:50;;;;;;;11.95;6.72;;;14.30;99.90;;;;;;5046816;28;20033;-89
2023/07/05 02:57:16;;;;;;;13.90;6.75;;;14.30;99.90;;;;;;5030985;28;20058;-88
2023/07/05 02:59:41;;;;;;;15.93;7.45;;;14.30;99.90;;;;;;5063487;28;20412;-87
2023/07/05 03:02:09;;;;;;;17.83;7.00;;;14.40;99.90;;;;;;5029412;28;20044;-88
2023/07/05 03:04:34;;;;;;;15.75;7.70;;;14.30;99.90;;;;;;5030961;28;20071;-87
2023/07/05 03:07:00;;;;;;;19.10;7.10;;;14.30;99.90;;;;;;5062379;28;20126;-87
2023/07/05 03:09:26;;;;;;;10.63;6.35;;;14.30;99.90;;;;;;5063251;28;20040;-87
2023/07/05 03:11:52;;;;;;;18.60;7.90;;;14.30;99.90;;;;;;5045221;28;20123;-87
2023/07/05 03:14:17;;;;;;;12.82;7.22;;;14.30;99.90;;;;;;5029855;28;20063;-87
2023/07/05 03:16:43;;;;;;;14.32;7.70;;;14.30;99.90;;;;;;5029639;28;20051;-87
2023/07/05 03:19:08;;;;;;;15.32;7.20;;;14.30;99.90;;;;;;5029027;28;20134;-87
2023/07/05 03:21:34;;;;;;;10.20;7.05;;;14.30;99.90;;;;;;5046798;28;20044;-87
2023/07/05 03:24:00;;;;;;;12.48;6.88;;;14.30;99.90;;;;;;5029068;28;20506;-88
2023/07/05 03:26:25;;;;;;;13.48;6.95;;;14.50;99.90;;;;;;5046694;28;20399;-88
2023/07/05 03:28:51;;;;;;;19.67;7.95;;;14.30;99.90;;;;;;5046295;28;20045;-87
2023/07/05 03:31:17;;;;;;;14.38;7.43;;;14.30;99.90;;;;;;5046309;28;20385;-88
2023/07/05 03:33:43;;;;;;;17.85;8.32;;;14.30;99.90;;;;;;5062274;28;20044;-87
2023/07/05 03:36:15;;;;;;;12.88;8.38;;;14.30;99.90;;;;;;5045736;28;20488;-87
2023/07/05 03:38:41;;;;;;;10.85;5.63;;;14.30;99.90;;;;;;5047377;28;20044;-89
2023/07/05 03:41:19;;;;;;;12.07;7.93;;;14.30;99.90;;;;;;5045130;28;20549;-87
2023/07/05 03:43:48;;;;;;;14.25;8.40;;;14.30;99.90;;;;;;5062729;28;20067;-88
2023/07/05 03:46:16;;;;;;;11.43;7.20;;;14.30;99.90;;;;;;5062419;28;20127;-90
2023/07/05 03:48:43;;;;;;;12.20;8.43;;;14.30;99.90;;;;;;5033065;28;20128;-87
2023/07/05 03:51:11;;;;;;;12.27;8.27;;;14.30;99.90;;;;;;5054480;28;20037;-86
2023/07/05 03:53:37;;;;;;;14.70;8.88;;;14.30;99.90;;;;;;5060888;28;20100;-86
2023/07/05 03:56:06;;;;;;;13.32;8.13;;;14.30;99.90;;;;;;5054489;28;20070;-87
2023/07/05 03:58:33;;;;;;;14.88;8.90;;;14.40;99.90;;;;;;5066814;28;20044;-86
2023/07/05 04:01:29;;;;;;;15.27;9.07;;;14.40;99.90;;;;;;5048649;28;20037;-87
2023/07/05 04:04:02;;;;;;;17.08;9.25;;;14.40;99.90;;;;;;5042638;28;20194;-89
2023/07/05 04:06:31;;;;;;;16.25;8.77;;;14.40;99.90;;;;;;5045502;28;20048;-88
2023/07/05 04:08:57;;;;;;;19.20;9.38;;;14.40;99.90;;;;;;5046543;28;20077;-89
2023/07/05 04:11:23;;;;;;;18.75;10.23;;;14.40;99.90;;;;;;5062227;28;20376;-89
2023/07/05 04:13:50;;;;;;;17.98;10.63;;;14.40;99.90;;;;;;5046047;28;20040;-88
2023/07/05 04:16:19;;;;;;;14.65;10.27;;;14.40;99.90;;;;;;5030143;28;20411;-88
2023/07/05 04:18:46;;;;;;;16.85;10.55;;;14.50;99.90;;;;;;5046128;28;20045;-87
2023/07/05 04:21:12;;;;;;;9.57;6.95;;;14.50;99.90;;;;;;5030078;28;20074;-89
2023/07/05 04:23:40;;;;;;;13.25;7.57;;;14.50;99.90;;;;;;5047703;28;20045;-88
2023/07/05 04:26:07;;;;;;;10.30;6.38;;;14.50;99.90;;;;;;5050188;28;20048;-90
2023/07/05 04:28:34;;;;;;;13.73;6.65;;;14.60;99.90;;;;;;5066426;28;20122;-88
2023/07/05 04:31:00;;;;;;;7.40;5.85;;;14.60;99.90;;;;;;5066733;28;20048;-85
2023/07/05 04:33:26;;;;;;;9.43;6.10;;;14.60;99.90;;;;;;5067119;28;20071;-87
2023/07/05 04:35:55;;;;;;;9.38;5.60;;;14.70;99.90;;;;;;5033281;28;20044;-87
2023/07/05 04:38:21;;;;;;;9.98;6.40;;;14.80;99.90;;;;;;5050284;28;20408;-86
2023/07/05 04:40:46;;;;;;;11.35;6.28;;;14.80;99.90;;;;;;5049500;28;20044;-86
2023/07/05 04:43:12;;;;;;;8.63;5.63;;;14.90;99.90;;;;;;5066634;28;20055;-86
2023/07/05 04:45:38;;;;;;;8.98;6.22;;;14.90;99.90;;;;;;5048926;28;20097;-86
2023/07/05 04:48:04;;;;;;;9.52;5.70;;;15.00;99.90;;;;;;5049426;28;20136;-87
2023/07/05 04:50:30;;;;;;;11.98;6.50;;;15.00;99.90;;;;;;5066146;28;20113;-88
2023/07/05 04:52:55;;;;;;;8.75;5.80;;;15.00;99.90;;;;;;5066413;28;20044;-87
2023/07/05 04:55:22;;;;;;;10.30;6.45;;;15.10;99.90;;;;;;5050268;28;20047;-88
2023/07/05 04:57:47;;;;;;;10.95;5.85;;;15.10;99.90;;;;;;5048885;28;20502;-87
2023/07/05 05:00:13;;;;;;;8.20;4.90;;;15.10;99.90;;;;;;5066274;28;20048;-87
2023/07/05 05:02:40;;;;;;;7.90;4.40;;;15.10;99.90;;;;;;5053386;28;20051;-85
2023/07/05 05:05:06;;;;;;;9.68;5.20;;;15.20;99.90;;;;;;5036458;28;20755;-89
2023/07/05 05:07:33;;;;;;;10.68;5.05;;;15.20;99.90;;;;;;5066426;28;20048;-87
2023/07/05 05:10:00;;;;;;;12.45;4.90;;;15.20;99.90;;;;;;5050867;28;20471;-91
2023/07/05 05:12:26;;;;;;;7.72;5.15;;;15.20;99.90;;;;;;5051160;28;20054;-90
2023/07/05 05:14:52;;;;;;;6.95;4.57;;;15.20;99.90;;;;;;5033126;28;20040;-92
2023/07/05 05:17:18;;;;;;;6.32;3.92;;;15.20;99.90;;;;;;5034278;28;20112;-91
2023/07/05 05:19:44;;;;;;;3.22;2.33;;;15.20;99.90;;;;;;5041854;28;20139;-90
2023/07/05 05:22:13;;;;;;;5.05;2.42;;;15.10;99.90;;;;;;5050340;28;20100;-91
2023/07/05 05:24:39;;;;;;;6.40;2.67;;;15.10;99.90;;;;;;5069734;28;20056;-82
2023/07/05 05:27:05;;;;;;;6.00;2.40;;;15.00;99.90;;;;;;5058061;28;20332;-88
2023/07/05 05:29:31;;;;;;;4.13;2.70;;;15.10;99.90;;;;;;5050445;28;20100;-85
2023/07/05 05:31:57;;;;;;;5.25;2.42;;;15.10;99.90;;;;;;5048310;28;20139;-88
2023/07/05 05:34:29;;;;;;;3.85;2.58;;;15.00;99.90;;;;;;5064404;28;20055;-85
2023/07/05 05:36:54;;;;;;;4.60;2.42;;;14.90;99.90;;;;;;5032225;28;20523;-86
2023/07/05 05:39:20;;;;;;;4.50;2.78;;;14.90;99.90;;;;;;5048425;28;20076;-86
2023/07/05 05:41:46;;;;;;;3.97;2.97;;;14.90;99.90;;;;;;5064861;28;20052;-86
2023/07/05 05:44:12;;;;;;;4.90;3.00;;;14.90;99.90;;;;;;5031543;28;20052;-85
2023/07/05 05:46:38;;;;;;;5.43;2.80;;;14.90;99.90;;;;;;5048639;28;20202;-90
2023/07/05 05:49:04;;;;;;;4.13;2.28;;;14.80;99.90;;;;;;5032037;28;20055;-87
2023/07/05 05:51:29;;;;;;;5.97;2.60;;;14.80;99.90;;;;;;5048678;28;20067;-86
2023/07/05 05:53:55;;;;;;;6.32;2.47;;;13.70;99.90;;;;;;5048001;28;20055;-88
2023/07/05 05:56:21;;;;;;;5.10;2.38;;;14.80;99.90;;;;;;5032104;28;20041;-86
2023/07/05 05:58:46;;;;;;;5.70;3.20;;;14.90;99.90;;;;;;5047939;28;20558;-86
2023/07/05 06:01:12;;;;;;;4.75;3.22;;;15.00;99.90;;;;;;5064425;28;20040;-86
2023/07/05 06:03:39;;;;;;;4.50;2.58;;;15.00;99.90;;;;;;5031808;28;20044;-87
2023/07/05 06:06:05;;;;;;;6.93;2.50;;;15.10;99.90;;;;;;5064533;28;20064;-89
2023/07/05 06:08:32;;;;;;;3.28;2.35;;;15.20;99.90;;;;;;5050142;28;20052;-87
2023/07/05 06:11:00;;;;;;;3.60;2.55;;;15.20;99.90;;;;;;5069605;28;20044;-85
2023/07/05 06:13:27;;;;;;;4.38;2.72;;;15.20;99.90;;;;;;5051499;28;20128;-87
2023/07/05 06:15:59;;;;;;;5.60;2.15;;;15.30;99.90;;;;;;5048170;28;20082;-90
2023/07/05 06:18:26;;;;;;;7.15;1.65;;;15.30;99.90;;;;;;5048233;28;20094;-88
2023/07/05 06:20:53;;;;;;;4.05;1.95;;;15.30;99.90;;;;;;5032143;28;20040;-88
2023/07/05 06:23:19;;;;;;;7.10;2.42;;;15.40;99.90;;;;;;5047728;28;20372;-88
2023/07/05 06:25:50;;;;;;;7.03;2.42;;;15.50;99.90;;;;;;5047505;28;20044;-87
2023/07/05 06:28:17;;;;;;;3.92;2.13;;;15.50;99.90;;;;;;5046945;28;20091;-87
2023/07/05 06:30:44;;;;;;;4.93;2.13;;;15.50;99.90;;;;;;5047604;28;20044;-86
2023/07/05 06:33:10;;;;;;;3.95;2.13;;;15.50;99.90;;;;;;5048023;28;20064;-88
2023/07/05 06:35:36;;;;;;;3.92;2.25;;;15.50;99.90;;;;;;5064117;28;20438;-87
2023/07/05 06:38:02;;;;;;;3.22;2.03;;;15.40;99.90;;;;;;5047686;28;20458;-88
2023/07/05 06:40:29;;;;;;;4.45;2.05;;;15.40;99.90;;;;;;5047405;28;20075;-90
2023/07/05 06:42:55;;;;;;;5.32;2.40;;;15.50;99.90;;;;;;5047904;28;20049;-88
2023/07/05 06:45:21;;;;;;;6.40;2.25;;;15.50;99.90;;;;;;5047189;28;20064;-86
2023/07/05 06:47:48;;;;;;;3.65;2.13;;;15.50;99.90;;;;;;5031014;28;20055;-85
2023/07/05 06:50:14;;;;;;;3.72;2.15;;;15.50;99.90;;;;;;5048567;28;20494;-82
2023/07/05 06:52:39;;;;;;;5.90;1.98;;;15.50;99.90;;;;;;5048115;28;20040;-82
2023/07/05 06:55:06;;;;;;;3.35;2.13;;;15.50;99.90;;;;;;5069653;28;20044;-81
2023/07/05 06:57:32;;;;;;;4.40;2.13;;;15.60;99.90;;;;;;5067230;28;20048;-82
2023/07/05 06:59:58;;;;;;;7.15;2.25;;;15.60;99.90;;;;;;5065655;28;20040;-81
2023/07/05 07:02:24;;;;;;;3.58;2.03;;;15.60;99.90;;;;;;5063912;28;20075;-81
2023/07/05 07:04:50;;;;;;;3.08;2.00;;;15.50;99.90;;;;;;5064335;28;20072;-80
2023/07/05 07:07:16;;;;;;;6.35;1.95;;;15.50;99.90;;;;;;5064473;28;20052;-81
2023/07/05 07:09:42;;;;;;;5.45;1.98;;;15.40;99.90;;;;;;5063351;28;20484;-81
2023/07/05 07:12:09;;;;;;;3.53;1.95;;;15.30;99.90;;;;;;5046790;28;20432;-80
2023/07/05 07:14:35;;;;;;;4.88;2.20;;;15.30;99.90;;;;;;5045704;28;20051;-81
2023/07/05 07:17:01;;;;;;;5.15;2.22;;;15.40;99.90;;;;;;5063592;28;20087;-81
2023/07/05 07:19:27;;;;;;;6.15;2.42;;;15.60;99.90;;;;;;5065039;28;20589;-82
2023/07/05 07:21:52;;;;;;;4.35;2.20;;;15.70;99.90;;;;;;5050004;28;20140;-80
2023/07/05 07:24:18;;;;;;;7.05;2.38;;;15.90;99.90;;;;;;5047336;28;20098;-81
2023/07/05 07:26:44;;;;;;;5.15;2.13;;;16.00;99.90;;;;;;5062873;28;20049;-80
2023/07/05 07:29:11;;;;;;;3.22;1.88;;;16.20;99.90;;;;;;5046532;28;20044;-81
2023/07/05 07:31:37;;;;;;;11.52;1.98;;;16.30;99.90;;;;;;5062332;28;20560;-81
2023/07/05 07:34:05;;;;;;;11.23;2.00;;;16.40;99.90;;;;;;5063047;28;20059;-82
2023/07/05 07:36:32;;;;;;;6.78;2.05;;;16.20;99.90;;;;;;5062465;28;20052;-82
2023/07/05 07:38:59;;;;;;;7.18;2.05;;;16.10;99.90;;;;;;5046613;28;20044;-82
2023/07/05 07:41:36;;;;;;;5.63;1.67;;;16.00;99.90;;;;;;5045842;28;20045;-83
2023/07/05 07:44:05;;;;;;;3.47;1.83;;;15.70;99.90;;;;;;5045627;28;20129;-83
2023/07/05 07:46:32;;;;;;;3.28;1.80;;;15.60;99.90;;;;;;5045769;28;20090;-82
2023/07/05 07:49:00;;;;;;;4.05;1.20;;;15.60;99.90;;;;;;5045420;28;20475;-81
2023/07/05 07:51:31;;;;;;;3.13;1.73;;;15.60;99.90;;;;;;5062627;28;20128;-82
2023/07/05 07:53:57;;;;;;;3.08;1.42;;;15.50;99.90;;;;;;5062837;28;20435;-81
2023/07/05 07:56:24;;;;;;;4.63;1.45;;;15.50;99.90;;;;;;5062905;28;20091;-82
2023/07/05 07:58:52;;;;;;;8.63;1.77;;;15.30;99.90;;;;;;5049566;28;20445;-83
2023/07/05 08:01:21;;;;;;;4.65;1.50;;;15.20;99.90;;;;;;5049794;28;20128;-83
2023/07/05 08:03:46;;;;;;;2.63;1.80;;;15.00;99.90;;;;;;5049757;28;20064;-84
2023/07/05 08:06:12;;;;;;;7.65;1.30;;;14.80;99.90;;;;;;5049937;28;20041;-83
2023/07/05 08:08:39;;;;;;;4.32;1.50;;;14.70;99.90;;;;;;5065736;28;20491;-82
2023/07/05 08:11:08;;;;;;;4.28;1.20;;;14.50;99.90;;;;;;5049847;28;20399;-84
2023/07/05 08:13:35;;;;;;;2.53;1.10;;;14.40;99.90;;;;;;5049658;28;20044;-83
2023/07/05 08:16:01;;;;;;;5.68;1.23;;;14.20;99.90;;;;;;5049169;28;20046;-83
2023/07/05 08:18:27;;;;;;;5.72;0.93;;;14.20;99.90;;;;;;5048949;28;20051;-83
2023/07/05 08:20:53;;;;;;;2.40;0.57;;;14.10;99.90;;;;;;5033008;28;20080;-84
2023/07/05 08:23:20;;;;;;;2.90;0.65;;;14.00;99.90;;;;;;5050206;28;20075;-84
2023/07/05 08:25:55;;;;;;;0.63;0.30;;;13.80;99.90;;;;;;5050573;28;20051;-83
2023/07/05 08:28:23;;;;;;;3.55;0.40;;;13.60;99.90;;;;;;5058591;28;20082;-83
2023/07/05 08:30:58;;;;;;;1.30;0.50;;;13.40;99.90;;;;;;5082395;28;20169;-87
2023/07/05 08:33:26;;;;;;;0.70;0.52;;;11.50;99.90;;;;;;5061650;28;20409;-87
2023/07/05 08:36:13;;;;;;;2.25;0.30;;;13.10;99.90;;;;;;5071964;28;20048;-82
2023/07/05 08:38:50;;;;;;;1.40;0.52;;;13.00;99.90;;;;;;5067753;28;20131;-84
2023/07/05 08:41:46;;;;;;;0.98;0.40;;;12.90;99.90;;;;;;5066660;28;20113;-81
2023/07/05 08:44:30;;;;;;;2.58;0.50;;;12.80;99.90;;;;;;5050013;28;20450;-83
2023/07/05 08:47:08;;;;;;;3.33;0.50;;;12.70;99.90;;;;;;5066393;28;20070;-83
2023/07/05 08:49:45;;;;;;;1.30;0.30;;;12.60;99.90;;;;;;5049187;28;20056;-84
2023/07/05 08:52:23;;;;;;;2.47;0.40;;;12.60;99.90;;;;;;5065942;28;20096;-84
2023/07/05 08:54:59;;;;;;;0.85;0.30;;;12.50;99.90;;;;;;5065466;28;20128;-83
2023/07/05 08:57:33;;;;;;;0.65;0.25;;;12.50;99.90;;;;;;5065060;28;20056;-83
2023/07/05 09:00:11;;;;;;;1.55;0.55;;;12.40;99.90;;;;;;5065114;28;20060;-83
2023/07/05 09:02:37;;;;;;;1.63;0.28;;;12.40;99.90;;;;;;5048295;28;20043;-81
2023/07/05 09:05:04;;;;;;;4.82;0.40;;;12.40;99.90;;;;;;5064800;28;20132;-82
2023/07/05 09:07:48;;;;;;;2.45;0.38;;;12.40;99.90;;;;;;5048427;28;20045;-84
2023/07/05 09:10:30;;;;;;;4.05;0.40;;;12.30;99.90;;;;;;5065459;28;20036;-85
2023/07/05 09:13:16;;;;;;;4.03;1.00;;;12.40;99.90;;;;;;5066928;28;20044;-84
2023/07/05 09:16:17;;;;;;;1.67;0.50;;;12.30;99.90;;;;;;5065191;28;20032;-83
2023/07/05 09:19:28;;;;;;;6.50;1.63;;;12.30;99.90;;;;;;5058057;28;20052;-84
2023/07/05 09:22:01;;;;;;;2.80;0.52;;;12.30;99.90;;;;;;5010544;28;20577;-84
2023/07/05 09:24:31;;;;;;;2.95;0.55;;;12.30;99.90;;;;;;5048334;28;20159;-83
2023/07/05 09:27:19;;;;;;;1.23;0.40;;;12.40;99.90;;;;;;5065180;28;20056;-83
2023/07/05 09:29:57;;;;;;;6.70;1.10;;;12.40;99.90;;;;;;5064825;28;20088;-84
2023/07/05 09:32:31;;;;;;;3.53;0.82;;;12.40;99.90;;;;;;5064841;28;20052;-83
2023/07/05 09:34:59;;;;;;;3.83;0.88;;;12.50;99.90;;;;;;5047790;28;20506;-84
2023/07/05 09:37:35;;;;;;;1.65;0.70;;;12.60;99.90;;;;;;5065135;28;20043;-84
2023/07/05 09:40:18;;;;;;;4.82;0.73;;;12.70;99.90;;;;;;5047982;28;20076;-82
2023/07/05 09:43:00;;;;;;;3.72;0.50;;;12.80;99.90;;;;;;5067898;28;20045;-81
2023/07/05 09:45:26;;;;;;;3.88;0.40;;;12.90;99.90;;;;;;5050047;28;20060;-81
2023/07/05 09:48:01;;;;;;;1.85;0.73;;;13.10;99.90;;;;;;5063993;28;20106;-80
2023/07/05 09:50:27;;;;;;;1.17;0.38;;;13.20;99.90;;;;;;5065736;28;20115;-82
2023/07/05 09:52:59;;;;;;;2.72;0.10;;;13.30;99.90;;;;;;5065547;28;20051;-81
2023/07/05 09:55:28;;;;;;;0.80;0.30;;;13.30;99.90;;;;;;5064309;28;20051;-79
2023/07/05 09:57:54;;;;;;;0.38;0.17;;;13.40;99.90;;;;;;5065351;28;20117;-80
2023/07/05 10:00:33;;;;;;;2.65;0.20;;;13.50;99.90;;;;;;5049956;28;20403;-81
2023/07/05 10:03:12;;;;;;;1.92;0.20;;;13.50;99.90;;;;;;5072778;28;20079;-78
2023/07/05 10:05:38;;;;;;;1.25;0.20;;;13.60;99.90;;;;;;5066710;28;20097;-81
2023/07/05 10:08:15;;;;;;;0.30;0.17;;;13.60;99.90;;;;;;5048730;28;20096;-82
2023/07/05 10:10:41;;;;;;;1.58;0.20;;;13.70;99.90;;;;;;5065131;28;20487;-85
2023/07/05 10:13:19;;;;;;;0.40;0.40;;;13.70;99.90;;;;;;5064427;28;20048;-83
2023/07/05 10:15:49;;;;;;;2.53;0.10;;;13.80;99.90;;;;;;5066129;28;20257;-83
2023/07/05 10:18:35;;;;;;;1.55;0.20;;;13.80;99.90;;;;;;5064324;28;20125;-82
2023/07/05 10:21:17;;;;;;;1.17;0.30;;;13.90;99.90;;;;;;5063454;28;20158;-83
2023/07/05 10:23:44;;;;;;;0.60;0.10;;;14.00;99.90;;;;;;5064555;28;20515;-84
2023/07/05 10:26:11;;;;;;;2.22;0.20;;;14.10;99.90;;;;;;5063175;28;20101;-82
2023/07/05 10:28:40;;;;;;;0.28;0.10;;;14.30;99.90;;;;;;5047785;28;20482;-80
2023/07/05 10:31:07;;;;;;;0.93;0.20;;;14.50;99.90;;;;;;5047994;28;20041;-81
2023/07/05 10:33:36;;;;;;;0.75;0.15;;;14.70;99.90;;;;;;5063455;28;20045;-82
2023/07/05 10:36:13;;;;;;;0.52;0.22;;;14.90;99.90;;;;;;5047456;28;20119;-84
2023/07/05 10:38:39;;;;;;;0.95;0.15;;;15.10;99.90;;;;;;5046436;28;20044;-81
2023/07/05 10:41:19;;;;;;;2.28;0.30;;;15.20;99.90;;;;;;5063664;28;20040;-81
2023/07/05 10:43:50;;;;;;;2.67;0.30;;;15.20;99.90;;;;;;5046478;28;20139;-81
2023/07/05 10:46:19;;;;;;;0.88;0.10;;;15.30;99.90;;;;;;5063385;28;20057;-80
2023/07/05 10:48:46;;;;;;;0.77;0.20;;;15.30;99.90;;;;;;5047409;28;20078;-82
2023/07/05 10:51:21;;;;;;;0.68;0.20;;;15.40;99.90;;;;;;5049488;28;20071;-84
2023/07/05 10:53:55;;;;;;;0.50;0.20;;;15.40;99.90;;;;;;5066501;28;20049;-81
2023/07/05 10:56:26;;;;;;;1.35;0.20;;;15.60;99.90;;;;;;5063396;28;20348;-81
2023/07/05 10:59:04;;;;;;;2.30;0.28;;;15.80;99.90;;;;;;5065826;28;20073;-83
2023/07/05 11:01:54;;;;;;;1.50;0.82;;;16.00;99.90;;;;;;5063639;28;20464;-84
2023/07/05 11:04:24;;;;;;;1.13;0.38;;;16.20;99.90;;;;;;5062442;28;20045;-81
2023/07/05 11:06:52;;;;;;;0.95;0.47;;;16.40;99.90;;;;;;5047095;28;20139;-82
2023/07/05 11:09:18;;;;;;;1.50;0.30;;;16.60;99.90;;;;;;5063071;28;20047;-82
2023/07/05 11:12:24;;;;;;;0.60;0.20;;;16.80;99.90;;;;;;5065050;28;20048;-82
2023/07/05 11:14:51;;;;;;;1.40;0.10;;;16.90;99.90;;;;;;5063996;28;20048;-81
2023/07/05 11:17:37;;;;;;;0.63;0.13;;;17.10;99.90;;;;;;5045751;28;20052;-82
2023/07/05 11:20:42;;;;;;;0.88;0.20;;;17.20;99.90;;;;;;5063455;28;20158;-83
2023/07/05 11:23:09;;;;;;;0.80;0.20;;;17.50;99.90;;;;;;5046368;28;20041;-82
2023/07/05 11:25:54;;;;;;;0.88;0.30;;;17.70;99.90;;;;;;5062831;28;20257;-80
2023/07/05 11:28:41;;;;;;;1.35;0.20;;;17.90;99.90;;;;;;5063946;28;20044;-80
2023/07/05 11:31:29;;;;;;;0.55;0.43;;;17.90;99.90;;;;;;5063475;28;20045;-77
2023/07/05 11:34:23;;;;;;;2.00;0.38;;;17.90;99.90;;;;;;5069201;28;20051;-78
2023/07/05 11:36:54;;;;;;;4.35;0.30;;;17.80;99.90;;;;;;5069549;28;20037;-80
2023/07/05 11:39:49;;;;;;;1.30;0.30;;;17.90;99.90;;;;;;5067978;28;20224;-79
2023/07/05 11:42:15;;;;;;;1.30;0.30;;;18.00;99.90;;;;;;5068693;28;20074;-80
2023/07/05 11:44:42;;;;;;;1.95;0.90;;;18.20;99.90;;;;;;5066688;28;20166;-79
2023/07/05 11:47:10;;;;;;;0.60;0.30;;;18.30;99.90;;;;;;5049508;28;20087;-79
2023/07/05 11:49:42;;;;;;;3.35;0.25;;;18.30;99.90;;;;;;5067208;28;20113;-80
2023/07/05 11:52:14;;;;;;;3.35;0.47;;;18.10;99.90;;;;;;5066341;28;20098;-80
2023/07/05 11:54:54;;;;;;;1.77;0.57;;;18.00;99.90;;;;;;5066958;28;20044;-81
2023/07/05 11:57:21;;;;;;;2.60;0.40;;;17.90;99.90;;;;;;5066766;28;20049;-80
2023/07/05 12:00:02;;;;;;;3.45;0.52;;;17.90;99.90;;;;;;5050075;28;20044;-80
2023/07/05 12:02:57;;;;;;;4.07;0.50;;;17.90;99.90;;;;;;5068842;28;20130;-80
2023/07/05 12:05:26;;;;;;;4.85;0.50;;;17.90;99.90;;;;;;5044854;28;20060;-80
2023/07/05 12:08:05;;;;;;;5.03;0.50;;;18.00;99.90;;;;;;5066313;28;20083;-81
2023/07/05 12:10:34;;;;;;;6.22;0.63;;;18.00;99.90;;;;;;5066772;28;20396;-81
2023/07/05 12:13:02;;;;;;;5.10;0.50;;;18.00;99.90;;;;;;5065608;28;20401;-83
2023/07/05 12:15:28;;;;;;;3.78;0.82;;;17.90;99.90;;;;;;5033893;28;20128;-81
2023/07/05 12:17:54;;;;;;;5.85;0.63;;;17.80;99.90;;;;;;5049250;28;20087;-81
2023/07/05 12:20:36;;;;;;;4.05;0.82;;;17.60;99.90;;;;;;5050492;28;20076;-79
2023/07/05 12:23:03;;;;;;;7.40;1.20;;;17.10;99.90;;;;;;5050142;28;20251;-79
2023/07/05 12:25:28;;;;;;;7.60;1.90;;;16.60;99.90;;;;;;5065677;28;20488;-80
2023/07/05 12:27:55;;;;;;;6.47;1.65;;;16.20;99.90;;;;;;5049640;28;20028;-81
2023/07/05 12:30:22;;;;;;;4.18;0.93;;;15.90;99.90;;;;;;5049388;28;20773;-79
2023/07/05 12:32:53;;;;;;;5.22;1.23;;;15.60;99.90;;;;;;5050544;28;20436;-83
2023/07/05 12:35:24;;;;;;;5.53;0.95;;;15.40;99.90;;;;;;5049751;28;20127;-83
2023/07/05 12:37:52;;;;;;;6.00;0.77;;;15.10;99.90;;;;;;5066078;28;20045;-84
2023/07/05 12:40:33;;;;;;;2.65;0.70;;;14.90;99.90;;;;;;5066170;28;20095;-81
2023/07/05 12:43:04;;;;;;;4.82;0.93;;;14.70;99.90;;;;;;5048308;28;20045;-81
2023/07/05 12:45:32;;;;;;;7.90;1.10;;;14.60;99.90;;;;;;5066075;28;20119;-83
2023/07/05 12:48:15;;;;;;;3.42;0.75;;;14.40;99.90;;;;;;5048106;28;20056;-83
2023/07/05 12:50:41;;;;;;;;;;;14.30;99.90;;;;;;5049245;28;20044;-81
2023/07/05 12:53:14;;;;;;;6.63;1.02;;;14.30;99.90;;;;;;5065557;28;19920;-83
2023/07/05 12:55:48;;;;;;;3.47;0.45;;;14.20;99.90;;;;;;5064725;28;20041;-84
2023/07/05 12:58:14;;;;;;;5.28;1.10;;;14.10;99.90;;;;;;5067048;28;20045;-82
2023/07/05 13:00:49;;;;;;;5.57;0.45;;;14.10;99.90;;;;;;5049660;28;20036;-83
2023/07/05 13:03:16;;;;;;;4.13;0.60;;;14.10;99.90;;;;;;5062153;28;20044;-81